Terminal Aerodrome Forecast
Issued by NWS

Home | Current Version | Previous Version | Text Only | Print | Product List | Glossary On
Versions: 1 2 3 4 5 6 7 8 9 10 11 12 13 14 15 16 17 18 19 20 21 22 23 24 25 26
000
FTUS43 KDLH 302339
TAFHYR
TAF
KHYR 302339Z 3100/3124 19005KT P6SM SCT035 BKN070
     FM310900 12005KT P6SM VCTS SCT015CB BKN050
     FM311500 14012KT 6SM -RA VCTS SCT015CB BKN070
     FM311800 16008G15KT 5SM -TSRA BR BKN020CB OVC050=

USA.gov is the U.S. government's official web portal to all federal, state and local government web resources and services.